sensor_id;sensor_type;location;lat;lon;timestamp;temperature;humidity
25192;DHT22;13143;50.924;5.320;2022-07-29T00:01:48;21.10;95.80
25192;DHT22;13143;50.924;5.320;2022-07-29T00:04:14;21.00;95.60
25192;DHT22;13143;50.924;5.320;2022-07-29T00:06:40;21.00;95.80
25192;DHT22;13143;50.924;5.320;2022-07-29T00:09:06;21.00;96.00
25192;DHT22;13143;50.924;5.320;2022-07-29T00:11:32;21.00;95.90
25192;DHT22;13143;50.924;5.320;2022-07-29T00:13:57;20.90;96.30
25192;DHT22;13143;50.924;5.320;2022-07-29T00:16:23;20.90;96.20
25192;DHT22;13143;50.924;5.320;2022-07-29T00:18:49;20.90;96.40
25192;DHT22;13143;50.924;5.320;2022-07-29T00:21:14;20.80;96.40
25192;DHT22;13143;50.924;5.320;2022-07-29T00:23:40;20.80;96.40
25192;DHT22;13143;50.924;5.320;2022-07-29T00:26:06;20.80;96.40
25192;DHT22;13143;50.924;5.320;2022-07-29T00:28:32;20.80;96.70
25192;DHT22;13143;50.924;5.320;2022-07-29T00:30:57;20.80;96.60
25192;DHT22;13143;50.924;5.320;2022-07-29T00:33:23;20.70;96.60
25192;DHT22;13143;50.924;5.320;2022-07-29T00:35:49;20.70;97.00
25192;DHT22;13143;50.924;5.320;2022-07-29T00:38:16;20.70;97.10
25192;DHT22;13143;50.924;5.320;2022-07-29T00:40:42;20.60;97.60
25192;DHT22;13143;50.924;5.320;2022-07-29T00:43:08;20.60;97.80
25192;DHT22;13143;50.924;5.320;2022-07-29T00:45:34;20.50;97.70
25192;DHT22;13143;50.924;5.320;2022-07-29T00:48:02;20.50;98.40
25192;DHT22;13143;50.924;5.320;2022-07-29T00:50:28;20.50;98.30
25192;DHT22;13143;50.924;5.320;2022-07-29T00:52:54;20.40;98.40
25192;DHT22;13143;50.924;5.320;2022-07-29T00:55:20;20.40;98.30
25192;DHT22;13143;50.924;5.320;2022-07-29T00:57:46;20.30;98.60
25192;DHT22;13143;50.924;5.320;2022-07-29T01:00:21;20.30;99.10
25192;DHT22;13143;50.924;5.320;2022-07-29T01:02:47;20.30;99.00
25192;DHT22;13143;50.924;5.320;2022-07-29T01:05:21;20.20;99.00
25192;DHT22;13143;50.924;5.320;2022-07-29T01:07:50;20.20;99.10
25192;DHT22;13143;50.924;5.320;2022-07-29T01:10:18;20.20;99.30
25192;DHT22;13143;50.924;5.320;2022-07-29T01:12:47;20.10;99.10
25192;DHT22;13143;50.924;5.320;2022-07-29T01:15:13;20.00;99.50
25192;DHT22;13143;50.924;5.320;2022-07-29T01:30:56;19.80;99.90
25192;DHT22;13143;50.924;5.320;2022-07-29T01:33:24;19.90;99.90
25192;DHT22;13143;50.924;5.320;2022-07-29T01:36:14;19.80;99.90
25192;DHT22;13143;50.924;5.320;2022-07-29T01:38:43;19.80;99.90
25192;DHT22;13143;50.924;5.320;2022-07-29T01:41:14;19.80;99.90
25192;DHT22;13143;50.924;5.320;2022-07-29T01:43:59;19.80;99.90
25192;DHT22;13143;50.924;5.320;2022-07-29T01:46:38;19.80;99.90
25192;DHT22;13143;50.924;5.320;2022-07-29T01:49:22;19.80;99.70
25192;DHT22;13143;50.924;5.320;2022-07-29T01:51:52;19.80;99.90
25192;DHT22;13143;50.924;5.320;2022-07-29T01:57:11;19.80;99.90
25192;DHT22;13143;50.924;5.320;2022-07-29T01:59:39;19.70;99.90
25192;DHT22;13143;50.924;5.320;2022-07-29T02:02:07;19.70;99.90
25192;DHT22;13143;50.924;5.320;2022-07-29T02:04:35;19.70;99.90
25192;DHT22;13143;50.924;5.320;2022-07-29T02:07:05;19.70;99.90
25192;DHT22;13143;50.924;5.320;2022-07-29T02:09:35;19.60;99.90
25192;DHT22;13143;50.924;5.320;2022-07-29T02:12:03;19.60;99.90
25192;DHT22;13143;50.924;5.320;2022-07-29T02:14:34;19.50;99.90
25192;DHT22;13143;50.924;5.320;2022-07-29T02:17:02;19.40;99.90
25192;DHT22;13143;50.924;5.320;2022-07-29T02:19:29;19.40;99.90
25192;DHT22;13143;50.924;5.320;2022-07-29T02:21:57;19.40;99.90
25192;DHT22;13143;50.924;5.320;2022-07-29T02:24:24;19.30;99.90
25192;DHT22;13143;50.924;5.320;2022-07-29T02:26:53;19.30;99.90
25192;DHT22;13143;50.924;5.320;2022-07-29T02:29:22;19.30;99.90
25192;DHT22;13143;50.924;5.320;2022-07-29T02:31:49;19.20;99.90
25192;DHT22;13143;50.924;5.320;2022-07-29T02:34:17;19.20;99.90
25192;DHT22;13143;50.924;5.320;2022-07-29T02:36:44;19.20;99.90
25192;DHT22;13143;50.924;5.320;2022-07-29T02:39:12;19.20;99.90
25192;DHT22;13143;50.924;5.320;2022-07-29T02:41:45;19.20;99.90
25192;DHT22;13143;50.924;5.320;2022-07-29T02:44:14;19.20;99.90
25192;DHT22;13143;50.924;5.320;2022-07-29T02:49:52;19.20;99.90
25192;DHT22;13143;50.924;5.320;2022-07-29T02:52:26;19.10;99.90
25192;DHT22;13143;50.924;5.320;2022-07-29T02:54:56;19.10;99.90
25192;DHT22;13143;50.924;5.320;2022-07-29T03:00:09;19.20;99.90
25192;DHT22;13143;50.924;5.320;2022-07-29T03:02:38;19.10;99.90
25192;DHT22;13143;50.924;5.320;2022-07-29T03:05:07;19.10;99.90
25192;DHT22;13143;50.924;5.320;2022-07-29T03:07:34;19.00;99.90
25192;DHT22;13143;50.924;5.320;2022-07-29T03:10:01;19.00;99.90
25192;DHT22;13143;50.924;5.320;2022-07-29T03:12:27;19.10;99.90
25192;DHT22;13143;50.924;5.320;2022-07-29T03:14:54;19.00;99.90
25192;DHT22;13143;50.924;5.320;2022-07-29T03:17:20;19.00;99.90
25192;DHT22;13143;50.924;5.320;2022-07-29T03:19:47;19.00;99.90
25192;DHT22;13143;50.924;5.320;2022-07-29T03:22:13;19.10;99.90
25192;DHT22;13143;50.924;5.320;2022-07-29T03:24:39;19.00;99.90
25192;DHT22;13143;50.924;5.320;2022-07-29T03:27:05;19.00;99.90
25192;DHT22;13143;50.924;5.320;2022-07-29T03:29:31;19.00;99.90
25192;DHT22;13143;50.924;5.320;2022-07-29T03:31:57;19.00;99.90
25192;DHT22;13143;50.924;5.320;2022-07-29T03:34:22;19.00;99.90
25192;DHT22;13143;50.924;5.320;2022-07-29T03:36:48;19.00;99.90
25192;DHT22;13143;50.924;5.320;2022-07-29T03:39:21;19.00;99.90
25192;DHT22;13143;50.924;5.320;2022-07-29T03:41:49;19.00;99.90
25192;DHT22;13143;50.924;5.320;2022-07-29T03:44:17;19.00;99.90
25192;DHT22;13143;50.924;5.320;2022-07-29T03:46:46;19.00;99.90
25192;DHT22;13143;50.924;5.320;2022-07-29T03:49:15;19.10;99.90
25192;DHT22;13143;50.924;5.320;2022-07-29T03:51:41;19.00;99.90
25192;DHT22;13143;50.924;5.320;2022-07-29T03:54:07;19.10;99.90
25192;DHT22;13143;50.924;5.320;2022-07-29T03:56:38;19.00;99.90
25192;DHT22;13143;50.924;5.320;2022-07-29T03:59:05;19.10;99.90
25192;DHT22;13143;50.924;5.320;2022-07-29T04:01:33;19.10;99.90
25192;DHT22;13143;50.924;5.320;2022-07-29T04:04:03;19.10;99.90
25192;DHT22;13143;50.924;5.320;2022-07-29T04:06:37;19.10;99.90
25192;DHT22;13143;50.924;5.320;2022-07-29T04:09:03;19.10;99.90
25192;DHT22;13143;50.924;5.320;2022-07-29T04:11:28;19.10;99.90
25192;DHT22;13143;50.924;5.320;2022-07-29T04:13:54;19.10;99.90
25192;DHT22;13143;50.924;5.320;2022-07-29T04:16:20;19.10;99.90
25192;DHT22;13143;50.924;5.320;2022-07-29T04:18:45;19.10;99.90
25192;DHT22;13143;50.924;5.320;2022-07-29T04:21:11;19.10;99.90
25192;DHT22;13143;50.924;5.320;2022-07-29T04:23:37;19.10;99.90
25192;DHT22;13143;50.924;5.320;2022-07-29T04:26:02;19.10;99.90
25192;DHT22;13143;50.924;5.320;2022-07-29T04:28:28;19.10;99.90
25192;DHT22;13143;50.924;5.320;2022-07-29T04:30:54;19.10;99.90
25192;DHT22;13143;50.924;5.320;2022-07-29T04:33:20;19.10;99.90
25192;DHT22;13143;50.924;5.320;2022-07-29T04:35:45;19.10;99.90
25192;DHT22;13143;50.924;5.320;2022-07-29T04:38:11;19.10;99.90
25192;DHT22;13143;50.924;5.320;2022-07-29T04:40:36;19.10;99.90
25192;DHT22;13143;50.924;5.320;2022-07-29T04:43:02;19.10;99.90
25192;DHT22;13143;50.924;5.320;2022-07-29T04:45:28;19.00;99.90
25192;DHT22;13143;50.924;5.320;2022-07-29T04:47:54;19.00;99.90
25192;DHT22;13143;50.924;5.320;2022-07-29T04:50:21;19.00;99.90
25192;DHT22;13143;50.924;5.320;2022-07-29T04:52:47;19.00;99.90
25192;DHT22;13143;50.924;5.320;2022-07-29T04:55:13;19.00;99.90
25192;DHT22;13143;50.924;5.320;2022-07-29T04:57:38;19.10;99.90
25192;DHT22;13143;50.924;5.320;2022-07-29T05:00:05;19.00;99.90
25192;DHT22;13143;50.924;5.320;2022-07-29T05:02:31;19.00;99.90
25192;DHT22;13143;50.924;5.320;2022-07-29T05:04:57;19.10;99.90
25192;DHT22;13143;50.924;5.320;2022-07-29T05:07:23;19.00;99.90
25192;DHT22;13143;50.924;5.320;2022-07-29T05:09:48;19.00;99.90
25192;DHT22;13143;50.924;5.320;2022-07-29T05:12:14;19.00;99.90
25192;DHT22;13143;50.924;5.320;2022-07-29T05:14:40;19.00;99.90
25192;DHT22;13143;50.924;5.320;2022-07-29T05:17:06;19.00;99.90
25192;DHT22;13143;50.924;5.320;2022-07-29T05:19:32;19.00;99.90
25192;DHT22;13143;50.924;5.320;2022-07-29T05:21:57;19.00;99.90
25192;DHT22;13143;50.924;5.320;2022-07-29T05:24:23;19.00;99.90
25192;DHT22;13143;50.924;5.320;2022-07-29T05:26:49;19.00;99.90
25192;DHT22;13143;50.924;5.320;2022-07-29T05:29:14;19.00;99.90
25192;DHT22;13143;50.924;5.320;2022-07-29T05:31:40;19.00;99.90
25192;DHT22;13143;50.924;5.320;2022-07-29T05:34:05;19.00;99.90
25192;DHT22;13143;50.924;5.320;2022-07-29T05:36:31;19.00;99.90
25192;DHT22;13143;50.924;5.320;2022-07-29T05:38:57;19.00;99.90
25192;DHT22;13143;50.924;5.320;2022-07-29T05:41:23;19.00;99.90
25192;DHT22;13143;50.924;5.320;2022-07-29T05:43:48;19.00;99.90
25192;DHT22;13143;50.924;5.320;2022-07-29T05:46:14;19.00;99.90
25192;DHT22;13143;50.924;5.320;2022-07-29T05:48:40;19.00;99.90
25192;DHT22;13143;50.924;5.320;2022-07-29T05:51:06;19.00;99.90
25192;DHT22;13143;50.924;5.320;2022-07-29T05:53:31;19.00;99.90
25192;DHT22;13143;50.924;5.320;2022-07-29T05:55:57;18.90;99.90
25192;DHT22;13143;50.924;5.320;2022-07-29T05:58:23;19.00;99.90
25192;DHT22;13143;50.924;5.320;2022-07-29T06:00:49;18.90;99.90
25192;DHT22;13143;50.924;5.320;2022-07-29T06:03:15;19.00;99.90
25192;DHT22;13143;50.924;5.320;2022-07-29T06:05:41;18.90;99.90
25192;DHT22;13143;50.924;5.320;2022-07-29T06:08:06;18.90;99.90
25192;DHT22;13143;50.924;5.320;2022-07-29T06:10:34;18.90;99.90
25192;DHT22;13143;50.924;5.320;2022-07-29T06:12:59;18.90;99.90
25192;DHT22;13143;50.924;5.320;2022-07-29T06:15:25;18.90;99.90
25192;DHT22;13143;50.924;5.320;2022-07-29T06:17:51;18.90;99.90
25192;DHT22;13143;50.924;5.320;2022-07-29T06:20:18;18.90;99.90
25192;DHT22;13143;50.924;5.320;2022-07-29T06:22:43;18.90;99.90
25192;DHT22;13143;50.924;5.320;2022-07-29T06:25:09;18.90;99.90
25192;DHT22;13143;50.924;5.320;2022-07-29T06:27:35;18.90;99.90
25192;DHT22;13143;50.924;5.320;2022-07-29T06:30:01;18.90;99.90
25192;DHT22;13143;50.924;5.320;2022-07-29T06:32:27;18.90;99.90
25192;DHT22;13143;50.924;5.320;2022-07-29T06:34:53;18.90;99.90
25192;DHT22;13143;50.924;5.320;2022-07-29T06:37:18;18.90;99.90
25192;DHT22;13143;50.924;5.320;2022-07-29T06:39:44;18.90;99.90
25192;DHT22;13143;50.924;5.320;2022-07-29T06:42:10;18.90;99.90
25192;DHT22;13143;50.924;5.320;2022-07-29T06:44:35;18.80;99.90
25192;DHT22;13143;50.924;5.320;2022-07-29T06:47:01;18.90;99.90
25192;DHT22;13143;50.924;5.320;2022-07-29T06:49:27;18.90;99.90
25192;DHT22;13143;50.924;5.320;2022-07-29T06:51:53;18.80;99.90
25192;DHT22;13143;50.924;5.320;2022-07-29T06:54:19;18.80;99.90
25192;DHT22;13143;50.924;5.320;2022-07-29T06:56:45;18.90;99.90
25192;DHT22;13143;50.924;5.320;2022-07-29T06:59:12;18.90;99.90
25192;DHT22;13143;50.924;5.320;2022-07-29T07:01:40;18.80;99.90
25192;DHT22;13143;50.924;5.320;2022-07-29T07:04:06;18.90;99.90
25192;DHT22;13143;50.924;5.320;2022-07-29T07:06:34;18.90;99.90
25192;DHT22;13143;50.924;5.320;2022-07-29T07:09:00;18.80;99.90
25192;DHT22;13143;50.924;5.320;2022-07-29T07:11:26;18.90;99.90
25192;DHT22;13143;50.924;5.320;2022-07-29T07:13:52;18.80;99.90
25192;DHT22;13143;50.924;5.320;2022-07-29T07:16:17;18.90;99.90
25192;DHT22;13143;50.924;5.320;2022-07-29T07:18:43;18.80;99.90
25192;DHT22;13143;50.924;5.320;2022-07-29T07:21:10;18.90;99.90
25192;DHT22;13143;50.924;5.320;2022-07-29T07:23:36;18.90;99.90
25192;DHT22;13143;50.924;5.320;2022-07-29T07:26:02;18.90;99.90
25192;DHT22;13143;50.924;5.320;2022-07-29T07:28:28;18.90;99.90
25192;DHT22;13143;50.924;5.320;2022-07-29T07:30:54;18.90;99.90
25192;DHT22;13143;50.924;5.320;2022-07-29T07:33:20;18.90;99.90
25192;DHT22;13143;50.924;5.320;2022-07-29T07:35:46;18.90;99.90
25192;DHT22;13143;50.924;5.320;2022-07-29T07:38:12;18.90;99.90
25192;DHT22;13143;50.924;5.320;2022-07-29T07:40:38;18.90;99.90
25192;DHT22;13143;50.924;5.320;2022-07-29T07:43:03;18.90;99.90
25192;DHT22;13143;50.924;5.320;2022-07-29T07:45:29;19.00;99.90
25192;DHT22;13143;50.924;5.320;2022-07-29T07:47:57;19.00;99.90
25192;DHT22;13143;50.924;5.320;2022-07-29T07:50:23;19.00;99.90
25192;DHT22;13143;50.924;5.320;2022-07-29T07:52:51;19.00;99.90
25192;DHT22;13143;50.924;5.320;2022-07-29T07:55:18;19.00;99.90
25192;DHT22;13143;50.924;5.320;2022-07-29T07:57:44;19.10;99.90
25192;DHT22;13143;50.924;5.320;2022-07-29T08:00:12;19.10;99.90
25192;DHT22;13143;50.924;5.320;2022-07-29T08:02:38;19.10;99.90
25192;DHT22;13143;50.924;5.320;2022-07-29T08:05:06;19.10;99.90
25192;DHT22;13143;50.924;5.320;2022-07-29T08:07:32;19.10;99.90
25192;DHT22;13143;50.924;5.320;2022-07-29T08:09:57;19.10;99.90
25192;DHT22;13143;50.924;5.320;2022-07-29T08:12:23;19.20;99.90
25192;DHT22;13143;50.924;5.320;2022-07-29T08:14:49;19.20;99.90
25192;DHT22;13143;50.924;5.320;2022-07-29T08:17:14;19.20;99.90
25192;DHT22;13143;50.924;5.320;2022-07-29T08:19:40;19.20;99.90
25192;DHT22;13143;50.924;5.320;2022-07-29T08:22:06;19.20;99.90
25192;DHT22;13143;50.924;5.320;2022-07-29T08:24:32;19.30;99.90
25192;DHT22;13143;50.924;5.320;2022-07-29T08:27:12;19.30;99.90
25192;DHT22;13143;50.924;5.320;2022-07-29T08:29:38;19.30;99.90
25192;DHT22;13143;50.924;5.320;2022-07-29T08:32:05;19.40;99.90
25192;DHT22;13143;50.924;5.320;2022-07-29T08:34:31;19.40;99.90
25192;DHT22;13143;50.924;5.320;2022-07-29T08:36:57;19.40;99.90
25192;DHT22;13143;50.924;5.320;2022-07-29T08:39:23;19.40;99.90
25192;DHT22;13143;50.924;5.320;2022-07-29T08:41:50;19.50;99.90
25192;DHT22;13143;50.924;5.320;2022-07-29T08:44:17;19.50;99.90
25192;DHT22;13143;50.924;5.320;2022-07-29T08:46:43;19.50;99.90
25192;DHT22;13143;50.924;5.320;2022-07-29T08:49:09;19.60;99.90
25192;DHT22;13143;50.924;5.320;2022-07-29T08:51:36;19.60;99.90
25192;DHT22;13143;50.924;5.320;2022-07-29T08:54:02;19.60;99.90
25192;DHT22;13143;50.924;5.320;2022-07-29T08:56:29;19.70;99.90
25192;DHT22;13143;50.924;5.320;2022-07-29T08:58:57;19.70;99.90
25192;DHT22;13143;50.924;5.320;2022-07-29T09:01:25;19.70;99.90
25192;DHT22;13143;50.924;5.320;2022-07-29T09:03:55;19.70;99.90
25192;DHT22;13143;50.924;5.320;2022-07-29T09:06:22;19.80;99.90
25192;DHT22;13143;50.924;5.320;2022-07-29T09:08:48;19.80;99.90
25192;DHT22;13143;50.924;5.320;2022-07-29T09:11:14;19.90;99.90
25192;DHT22;13143;50.924;5.320;2022-07-29T09:13:40;19.90;99.90
25192;DHT22;13143;50.924;5.320;2022-07-29T09:16:06;19.90;99.90
25192;DHT22;13143;50.924;5.320;2022-07-29T09:18:43;20.00;99.90
25192;DHT22;13143;50.924;5.320;2022-07-29T09:21:16;20.00;99.90
25192;DHT22;13143;50.924;5.320;2022-07-29T09:24:16;20.00;99.90
25192;DHT22;13143;50.924;5.320;2022-07-29T09:26:45;20.10;99.90
25192;DHT22;13143;50.924;5.320;2022-07-29T09:29:13;20.10;99.90
25192;DHT22;13143;50.924;5.320;2022-07-29T09:31:42;20.10;99.90
25192;DHT22;13143;50.924;5.320;2022-07-29T09:34:09;20.20;99.90
25192;DHT22;13143;50.924;5.320;2022-07-29T09:36:39;20.20;99.90
25192;DHT22;13143;50.924;5.320;2022-07-29T09:39:05;20.20;99.90
25192;DHT22;13143;50.924;5.320;2022-07-29T09:41:50;20.30;99.90
25192;DHT22;13143;50.924;5.320;2022-07-29T09:44:18;20.30;99.90
25192;DHT22;13143;50.924;5.320;2022-07-29T09:47:03;20.30;99.90
25192;DHT22;13143;50.924;5.320;2022-07-29T09:49:34;20.40;99.90
25192;DHT22;13143;50.924;5.320;2022-07-29T09:52:09;20.40;99.90
25192;DHT22;13143;50.924;5.320;2022-07-29T09:54:37;20.40;99.90
25192;DHT22;13143;50.924;5.320;2022-07-29T09:57:28;20.50;99.90
25192;DHT22;13143;50.924;5.320;2022-07-29T09:59:59;20.50;99.90
25192;DHT22;13143;50.924;5.320;2022-07-29T10:02:30;20.60;99.90
25192;DHT22;13143;50.924;5.320;2022-07-29T10:04:56;20.60;99.90
25192;DHT22;13143;50.924;5.320;2022-07-29T10:07:22;20.70;99.90
25192;DHT22;13143;50.924;5.320;2022-07-29T10:09:57;20.60;99.90
25192;DHT22;13143;50.924;5.320;2022-07-29T10:12:24;20.70;99.90
25192;DHT22;13143;50.924;5.320;2022-07-29T10:14:50;20.80;99.90
25192;DHT22;13143;50.924;5.320;2022-07-29T10:17:17;20.80;99.90
25192;DHT22;13143;50.924;5.320;2022-07-29T10:19:43;20.80;99.90
25192;DHT22;13143;50.924;5.320;2022-07-29T10:22:10;20.80;99.90
25192;DHT22;13143;50.924;5.320;2022-07-29T10:24:37;20.80;99.90
25192;DHT22;13143;50.924;5.320;2022-07-29T10:27:05;20.90;99.90
25192;DHT22;13143;50.924;5.320;2022-07-29T10:29:31;20.90;99.90
25192;DHT22;13143;50.924;5.320;2022-07-29T10:37:46;21.10;99.90
25192;DHT22;13143;50.924;5.320;2022-07-29T10:40:33;21.10;99.90
25192;DHT22;13143;50.924;5.320;2022-07-29T10:43:27;21.10;99.90
25192;DHT22;13143;50.924;5.320;2022-07-29T10:45:59;21.20;99.90
25192;DHT22;13143;50.924;5.320;2022-07-29T10:48:25;21.20;99.90
25192;DHT22;13143;50.924;5.320;2022-07-29T10:51:02;21.30;99.90
25192;DHT22;13143;50.924;5.320;2022-07-29T10:53:52;21.30;99.90
25192;DHT22;13143;50.924;5.320;2022-07-29T10:56:32;21.30;99.90
25192;DHT22;13143;50.924;5.320;2022-07-29T11:01:45;21.40;99.90
25192;DHT22;13143;50.924;5.320;2022-07-29T11:04:11;21.40;99.90
25192;DHT22;13143;50.924;5.320;2022-07-29T11:09:28;21.50;99.90
25192;DHT22;13143;50.924;5.320;2022-07-29T11:11:56;21.60;99.90
25192;DHT22;13143;50.924;5.320;2022-07-29T11:14:59;21.60;99.90
25192;DHT22;13143;50.924;5.320;2022-07-29T11:17:26;21.60;99.90
25192;DHT22;13143;50.924;5.320;2022-07-29T11:20:31;21.70;99.90
25192;DHT22;13143;50.924;5.320;2022-07-29T11:22:57;21.70;99.90
25192;DHT22;13143;50.924;5.320;2022-07-29T11:25:23;21.80;99.90
25192;DHT22;13143;50.924;5.320;2022-07-29T11:27:49;21.80;99.90
25192;DHT22;13143;50.924;5.320;2022-07-29T11:30:16;21.90;99.90
25192;DHT22;13143;50.924;5.320;2022-07-29T11:32:44;21.90;99.90
25192;DHT22;13143;50.924;5.320;2022-07-29T11:35:11;21.90;99.90
25192;DHT22;13143;50.924;5.320;2022-07-29T11:37:37;22.00;99.90
25192;DHT22;13143;50.924;5.320;2022-07-29T11:45:05;22.10;99.90
25192;DHT22;13143;50.924;5.320;2022-07-29T11:47:33;22.10;99.90
25192;DHT22;13143;50.924;5.320;2022-07-29T11:50:01;22.20;99.90
25192;DHT22;13143;50.924;5.320;2022-07-29T11:52:44;22.20;99.90
25192;DHT22;13143;50.924;5.320;2022-07-29T11:55:18;22.20;99.90
25192;DHT22;13143;50.924;5.320;2022-07-29T11:57:49;22.30;99.90
25192;DHT22;13143;50.924;5.320;2022-07-29T12:00:45;22.30;99.90
25192;DHT22;13143;50.924;5.320;2022-07-29T12:03:11;22.30;99.90
25192;DHT22;13143;50.924;5.320;2022-07-29T12:05:44;22.30;99.90
25192;DHT22;13143;50.924;5.320;2022-07-29T12:08:16;22.40;99.90
25192;DHT22;13143;50.924;5.320;2022-07-29T12:10:44;22.40;99.90
25192;DHT22;13143;50.924;5.320;2022-07-29T12:13:12;22.50;99.90
25192;DHT22;13143;50.924;5.320;2022-07-29T12:15:39;22.60;99.90
25192;DHT22;13143;50.924;5.320;2022-07-29T12:18:16;22.60;99.90
25192;DHT22;13143;50.924;5.320;2022-07-29T12:20:42;22.60;99.90
25192;DHT22;13143;50.924;5.320;2022-07-29T12:23:09;22.60;99.90
25192;DHT22;13143;50.924;5.320;2022-07-29T12:25:37;22.70;99.90
25192;DHT22;13143;50.924;5.320;2022-07-29T12:28:06;22.70;99.90
25192;DHT22;13143;50.924;5.320;2022-07-29T12:30:51;22.80;99.90
25192;DHT22;13143;50.924;5.320;2022-07-29T12:33:25;22.80;99.90
25192;DHT22;13143;50.924;5.320;2022-07-29T12:36:13;22.80;99.90
25192;DHT22;13143;50.924;5.320;2022-07-29T12:38:40;22.90;99.90
25192;DHT22;13143;50.924;5.320;2022-07-29T12:41:06;22.90;99.90
25192;DHT22;13143;50.924;5.320;2022-07-29T12:43:33;23.00;99.90
25192;DHT22;13143;50.924;5.320;2022-07-29T12:46:14;23.00;99.90
25192;DHT22;13143;50.924;5.320;2022-07-29T12:48:42;23.00;99.90
25192;DHT22;13143;50.924;5.320;2022-07-29T12:51:09;23.10;99.90
25192;DHT22;13143;50.924;5.320;2022-07-29T12:53:36;23.10;99.90
25192;DHT22;13143;50.924;5.320;2022-07-29T12:56:03;23.10;99.90
25192;DHT22;13143;50.924;5.320;2022-07-29T12:58:39;23.20;99.90
25192;DHT22;13143;50.924;5.320;2022-07-29T13:01:07;23.20;99.90
25192;DHT22;13143;50.924;5.320;2022-07-29T13:06:35;23.20;99.90
25192;DHT22;13143;50.924;5.320;2022-07-29T13:09:19;23.30;99.90
25192;DHT22;13143;50.924;5.320;2022-07-29T13:11:52;23.30;99.90
25192;DHT22;13143;50.924;5.320;2022-07-29T13:14:32;23.30;99.90
25192;DHT22;13143;50.924;5.320;2022-07-29T13:17:21;23.30;99.90
25192;DHT22;13143;50.924;5.320;2022-07-29T13:19:51;23.40;99.90
25192;DHT22;13143;50.924;5.320;2022-07-29T13:22:23;23.40;99.90
25192;DHT22;13143;50.924;5.320;2022-07-29T13:24:58;23.40;99.90
25192;DHT22;13143;50.924;5.320;2022-07-29T13:27:28;23.40;99.90
25192;DHT22;13143;50.924;5.320;2022-07-29T13:29:56;23.40;99.90
25192;DHT22;13143;50.924;5.320;2022-07-29T13:32:23;23.40;99.90
25192;DHT22;13143;50.924;5.320;2022-07-29T13:34:50;23.50;99.90
25192;DHT22;13143;50.924;5.320;2022-07-29T13:37:16;23.50;99.90
25192;DHT22;13143;50.924;5.320;2022-07-29T13:39:45;23.50;99.90
25192;DHT22;13143;50.924;5.320;2022-07-29T13:42:11;23.60;99.90
25192;DHT22;13143;50.924;5.320;2022-07-29T13:44:39;23.60;99.90
25192;DHT22;13143;50.924;5.320;2022-07-29T13:47:05;23.60;99.90
25192;DHT22;13143;50.924;5.320;2022-07-29T13:49:31;23.60;99.90
25192;DHT22;13143;50.924;5.320;2022-07-29T13:51:57;23.60;99.90
25192;DHT22;13143;50.924;5.320;2022-07-29T13:54:23;23.70;99.90
25192;DHT22;13143;50.924;5.320;2022-07-29T13:56:50;23.70;99.90
25192;DHT22;13143;50.924;5.320;2022-07-29T13:59:16;23.70;99.90
25192;DHT22;13143;50.924;5.320;2022-07-29T14:01:43;23.70;99.90
25192;DHT22;13143;50.924;5.320;2022-07-29T14:04:09;23.70;99.90
25192;DHT22;13143;50.924;5.320;2022-07-29T14:06:35;23.80;99.90
25192;DHT22;13143;50.924;5.320;2022-07-29T14:09:02;23.80;99.90
25192;DHT22;13143;50.924;5.320;2022-07-29T14:11:28;23.80;99.90
25192;DHT22;13143;50.924;5.320;2022-07-29T14:13:53;23.80;99.90
25192;DHT22;13143;50.924;5.320;2022-07-29T14:16:19;23.90;99.90
25192;DHT22;13143;50.924;5.320;2022-07-29T14:18:45;23.90;99.90
25192;DHT22;13143;50.924;5.320;2022-07-29T14:21:10;23.90;99.90
25192;DHT22;13143;50.924;5.320;2022-07-29T14:23:36;24.00;99.60
25192;DHT22;13143;50.924;5.320;2022-07-29T14:26:02;24.00;99.40
25192;DHT22;13143;50.924;5.320;2022-07-29T14:28:27;24.00;99.00
25192;DHT22;13143;50.924;5.320;2022-07-29T14:30:53;24.10;99.30
25192;DHT22;13143;50.924;5.320;2022-07-29T14:33:19;24.10;99.50
25192;DHT22;13143;50.924;5.320;2022-07-29T14:35:45;24.10;99.70
25192;DHT22;13143;50.924;5.320;2022-07-29T14:38:10;24.20;99.90
25192;DHT22;13143;50.924;5.320;2022-07-29T14:40:36;24.20;99.40
25192;DHT22;13143;50.924;5.320;2022-07-29T14:43:02;24.20;98.80
25192;DHT22;13143;50.924;5.320;2022-07-29T14:45:28;24.20;97.80
25192;DHT22;13143;50.924;5.320;2022-07-29T14:47:54;24.20;98.00
25192;DHT22;13143;50.924;5.320;2022-07-29T14:50:20;24.30;98.20
25192;DHT22;13143;50.924;5.320;2022-07-29T14:52:45;24.30;98.10
25192;DHT22;13143;50.924;5.320;2022-07-29T14:55:12;24.30;97.90
25192;DHT22;13143;50.924;5.320;2022-07-29T14:57:37;24.40;97.50
25192;DHT22;13143;50.924;5.320;2022-07-29T15:00:05;24.40;97.40
25192;DHT22;13143;50.924;5.320;2022-07-29T15:02:32;24.40;96.50
25192;DHT22;13143;50.924;5.320;2022-07-29T15:04:58;24.40;96.70
25192;DHT22;13143;50.924;5.320;2022-07-29T15:07:24;24.50;96.70
25192;DHT22;13143;50.924;5.320;2022-07-29T15:09:50;24.50;96.20
25192;DHT22;13143;50.924;5.320;2022-07-29T15:12:16;24.50;95.40
25192;DHT22;13143;50.924;5.320;2022-07-29T15:14:42;24.50;94.70
25192;DHT22;13143;50.924;5.320;2022-07-29T15:17:08;24.50;94.80
25192;DHT22;13143;50.924;5.320;2022-07-29T15:19:33;24.50;94.80
25192;DHT22;13143;50.924;5.320;2022-07-29T15:21:59;24.60;95.00
25192;DHT22;13143;50.924;5.320;2022-07-29T15:24:25;24.60;94.20
25192;DHT22;13143;50.924;5.320;2022-07-29T15:26:51;24.60;93.60
25192;DHT22;13143;50.924;5.320;2022-07-29T15:29:16;24.60;93.20
25192;DHT22;13143;50.924;5.320;2022-07-29T15:31:43;24.60;93.40
25192;DHT22;13143;50.924;5.320;2022-07-29T15:34:08;24.70;93.40
25192;DHT22;13143;50.924;5.320;2022-07-29T15:36:34;24.70;93.60
25192;DHT22;13143;50.924;5.320;2022-07-29T15:39:00;24.70;93.20
25192;DHT22;13143;50.924;5.320;2022-07-29T15:41:26;24.70;93.00
25192;DHT22;13143;50.924;5.320;2022-07-29T15:43:52;24.80;93.10
25192;DHT22;13143;50.924;5.320;2022-07-29T15:46:19;24.80;93.10
25192;DHT22;13143;50.924;5.320;2022-07-29T15:49:04;24.80;92.90
25192;DHT22;13143;50.924;5.320;2022-07-29T15:51:31;24.80;92.40
25192;DHT22;13143;50.924;5.320;2022-07-29T15:53:57;24.80;92.60
25192;DHT22;13143;50.924;5.320;2022-07-29T15:56:23;24.90;92.40
25192;DHT22;13143;50.924;5.320;2022-07-29T15:58:48;24.80;92.60
25192;DHT22;13143;50.924;5.320;2022-07-29T16:01:14;24.90;93.10
25192;DHT22;13143;50.924;5.320;2022-07-29T16:03:40;24.90;93.20
25192;DHT22;13143;50.924;5.320;2022-07-29T16:06:06;24.90;93.30
25192;DHT22;13143;50.924;5.320;2022-07-29T16:08:31;24.90;93.30
25192;DHT22;13143;50.924;5.320;2022-07-29T16:10:57;24.90;92.80
25192;DHT22;13143;50.924;5.320;2022-07-29T16:13:23;24.90;92.90
25192;DHT22;13143;50.924;5.320;2022-07-29T16:15:48;24.90;93.20
25192;DHT22;13143;50.924;5.320;2022-07-29T16:18:14;24.90;93.10